Time;durP1;ratioP1;P1;durP2;ratioP2;P2;SDS_P1;SDS_P2;PMS_P1;PMS_P2;Temp;Humidity;BMP_temperature;BMP_pressure;BME280_temperature;BME280_humidity;BME280_pressure;Samples;Min_cycle;Max_cycle;Signal;HPM_P1;HPM_P2
2022/01/31 00:00:15;;;;;;;16.03;3.40;;;6.10;99.90;;;;;;5052828;28;20033;-85
2022/01/31 00:02:43;;;;;;;12.17;3.10;;;6.10;99.90;;;;;;5052921;28;20029;-85
2022/01/31 00:05:09;;;;;;;14.20;2.90;;;6.20;99.90;;;;;;5052425;28;20029;-85
2022/01/31 00:07:35;;;;;;;14.87;3.87;;;6.20;99.90;;;;;;5052760;28;20036;-85
2022/01/31 00:10:06;;;;;;;13.83;3.20;;;6.20;99.90;;;;;;5052909;28;20041;-85
2022/01/31 00:12:38;;;;;;;15.07;3.17;;;6.20;99.90;;;;;;5052660;28;20065;-85
2022/01/31 00:15:05;;;;;;;15.93;3.47;;;6.10;99.90;;;;;;5034472;28;20032;-85
2022/01/31 00:17:30;;;;;;;15.30;3.20;;;6.10;99.90;;;;;;5052379;28;20068;-85
2022/01/31 00:19:56;;;;;;;17.87;3.87;;;6.10;99.90;;;;;;5052533;28;20079;-85
2022/01/31 00:22:22;;;;;;;15.50;3.43;;;6.10;99.90;;;;;;5034713;28;20082;-85
2022/01/31 00:24:49;;;;;;;13.00;3.40;;;6.10;99.90;;;;;;5051500;28;20033;-85
2022/01/31 00:27:15;;;;;;;14.00;3.30;;;6.10;99.90;;;;;;5034280;28;20029;-84
2022/01/31 00:29:40;;;;;;;16.03;3.30;;;6.10;99.90;;;;;;5052289;28;20027;-85
2022/01/31 00:32:06;;;;;;;16.43;3.10;;;6.10;99.90;;;;;;5052259;28;20021;-85
2022/01/31 00:34:32;;;;;;;13.77;3.43;;;6.10;99.90;;;;;;5034054;28;20029;-85
2022/01/31 00:36:59;;;;;;;16.90;3.30;;;6.10;99.90;;;;;;5034306;28;20048;-85
2022/01/31 00:39:25;;;;;;;16.47;3.73;;;6.00;99.90;;;;;;5017797;28;20087;-85
2022/01/31 00:41:50;;;;;;;14.67;3.60;;;6.10;99.90;;;;;;5033984;28;20068;-85
2022/01/31 00:46:48;;;;;;;15.40;3.67;;;6.20;99.90;;;;;;5034067;28;20091;-85
2022/01/31 00:51:58;;;;;;;16.17;2.77;;;6.10;99.90;;;;;;5051841;28;20025;-85
2022/01/31 00:54:24;;;;;;;16.20;3.13;;;6.10;99.90;;;;;;5033732;28;20024;-85
2022/01/31 00:56:50;;;;;;;17.23;3.27;;;6.10;99.90;;;;;;5033933;28;20055;-85
2022/01/31 00:59:17;;;;;;;13.47;2.87;;;6.10;99.90;;;;;;5051727;28;20032;-85
2022/01/31 01:01:43;;;;;;;12.60;2.93;;;6.00;99.90;;;;;;5033812;28;20033;-85
2022/01/31 01:04:09;;;;;;;15.67;3.30;;;6.10;99.90;;;;;;5051713;28;20044;-85
2022/01/31 01:06:35;;;;;;;20.63;3.50;;;6.00;99.90;;;;;;5033677;28;20037;-85
2022/01/31 01:09:01;;;;;;;16.27;4.17;;;6.10;99.90;;;;;;5033890;28;20029;-85
2022/01/31 01:11:27;;;;;;;17.10;2.93;;;6.10;99.90;;;;;;5051485;28;20025;-85
2022/01/31 01:13:53;;;;;;;12.67;2.73;;;6.00;99.90;;;;;;5033348;28;20040;-85
2022/01/31 01:16:18;;;;;;;15.67;3.53;;;6.00;99.90;;;;;;5051257;28;20032;-85
2022/01/31 01:18:44;;;;;;;12.97;2.60;;;6.00;99.90;;;;;;5033568;28;20481;-85
2022/01/31 01:21:10;;;;;;;16.10;2.40;;;6.10;99.90;;;;;;5033533;28;20036;-85
2022/01/31 01:23:36;;;;;;;12.50;2.90;;;6.00;99.90;;;;;;5033376;28;20608;-85
2022/01/31 01:26:02;;;;;;;17.47;3.10;;;6.00;99.90;;;;;;5033462;28;20056;-85
2022/01/31 01:28:28;;;;;;;15.57;2.70;;;6.00;99.90;;;;;;5033269;28;20086;-85
2022/01/31 01:30:56;;;;;;;18.03;3.20;;;6.00;99.90;;;;;;5033373;28;20456;-85
2022/01/31 01:33:23;;;;;;;16.37;3.43;;;6.00;99.90;;;;;;5033212;28;20033;-85
2022/01/31 01:35:53;;;;;;;17.70;3.03;;;6.00;99.90;;;;;;5032864;28;20025;-85
2022/01/31 01:38:28;;;;;;;9.63;2.80;;;6.00;99.90;;;;;;5016651;28;20488;-85
2022/01/31 01:40:59;;;;;;;17.20;3.57;;;6.10;99.90;;;;;;5033556;28;20124;-85
2022/01/31 01:43:26;;;;;;;16.10;3.27;;;6.10;99.90;;;;;;5033006;28;20223;-85
2022/01/31 01:45:54;;;;;;;14.13;2.67;;;6.10;99.90;;;;;;5033148;28;20032;-85
2022/01/31 01:48:21;;;;;;;14.17;3.00;;;6.00;99.90;;;;;;5033319;28;20116;-85
2022/01/31 01:50:48;;;;;;;10.33;2.63;;;6.10;99.90;;;;;;5033292;28;20071;-85
2022/01/31 01:53:14;;;;;;;14.10;3.03;;;6.10;99.90;;;;;;5033058;28;20025;-85
2022/01/31 01:55:45;;;;;;;16.83;3.03;;;6.10;99.90;;;;;;5033148;28;20510;-85
2022/01/31 01:58:16;;;;;;;14.03;2.83;;;6.10;99.90;;;;;;5050886;28;20055;-85
2022/01/31 02:00:51;;;;;;;13.00;2.70;;;6.10;99.90;;;;;;5016840;28;20036;-84
2022/01/31 02:03:27;;;;;;;12.73;2.90;;;6.10;99.90;;;;;;5032915;28;20082;-85
2022/01/31 02:05:54;;;;;;;12.97;3.17;;;6.10;99.90;;;;;;5050771;28;20484;-85
2022/01/31 02:08:21;;;;;;;15.37;3.83;;;6.10;99.90;;;;;;5033049;28;20481;-85
2022/01/31 02:10:47;;;;;;;12.33;3.33;;;6.10;99.90;;;;;;5032947;28;20389;-85
2022/01/31 02:13:37;;;;;;;12.65;2.70;;;6.00;99.90;;;;;;5050186;28;20037;-85
2022/01/31 02:16:06;;;;;;;;;;;6.00;99.90;;;;;;5051196;28;20404;-85
2022/01/31 02:18:48;;;;;;;14.00;2.90;;;6.00;99.90;;;;;;5050962;28;19909;-85
2022/01/31 02:21:33;;;;;;;14.87;2.97;;;6.00;99.90;;;;;;5032918;28;20056;-85
2022/01/31 02:23:59;;;;;;;13.03;2.80;;;6.00;99.90;;;;;;5032817;28;20124;-85
2022/01/31 02:26:38;;;;;;;18.25;3.50;;;6.00;99.90;;;;;;5032789;28;20103;-85
2022/01/31 02:29:16;;;;;;;13.40;2.87;;;5.90;99.90;;;;;;5032905;28;20040;-85
2022/01/31 02:31:44;;;;;;;16.03;3.30;;;5.90;99.90;;;;;;5032754;28;20025;-85
2022/01/31 02:34:10;;;;;;;14.20;3.57;;;6.00;99.90;;;;;;5032630;28;20055;-85
2022/01/31 02:36:37;;;;;;;16.17;5.03;;;5.90;99.90;;;;;;5032869;28;20542;-85
2022/01/31 02:39:05;;;;;;;21.07;5.90;;;5.90;99.90;;;;;;5050693;28;20029;-85
2022/01/31 02:41:31;;;;;;;19.37;6.00;;;5.80;99.90;;;;;;5032641;28;20511;-85
2022/01/31 02:43:59;;;;;;;22.07;6.07;;;5.80;99.90;;;;;;5016008;28;20034;-85
2022/01/31 02:46:31;;;;;;;22.33;6.13;;;5.80;99.90;;;;;;5032366;28;20396;-85
2022/01/31 02:48:58;;;;;;;19.50;6.93;;;5.70;99.90;;;;;;5035203;28;20036;-85
2022/01/31 02:51:27;;;;;;;21.10;6.53;;;5.70;99.90;;;;;;5036445;28;20109;-85
2022/01/31 02:53:53;;;;;;;21.02;6.43;;;5.70;99.90;;;;;;5036090;28;20025;-85
2022/01/31 02:56:19;;;;;;;13.03;4.13;;;5.70;99.90;;;;;;5053917;28;20087;-85
2022/01/31 02:58:45;;;;;;;17.17;4.43;;;5.70;99.90;;;;;;5036169;28;20516;-85
2022/01/31 03:01:14;;;;;;;15.03;3.73;;;5.60;99.90;;;;;;5036170;28;20033;-85
2022/01/31 03:03:41;;;;;;;9.40;2.73;;;5.60;99.90;;;;;;5035897;28;20059;-85
2022/01/31 03:06:07;;;;;;;16.07;3.00;;;5.60;99.90;;;;;;5035998;28;20067;-85
2022/01/31 03:08:33;;;;;;;14.87;3.50;;;5.60;99.90;;;;;;5035913;28;20501;-85
2022/01/31 03:11:11;;;;;;;8.77;2.83;;;5.50;99.90;;;;;;5036190;28;20127;-85
2022/01/31 03:13:56;;;;;;;12.40;2.67;;;5.50;99.90;;;;;;5035620;28;20671;-85
2022/01/31 03:16:22;;;;;;;10.00;2.60;;;5.50;99.90;;;;;;5035815;28;20037;-85
2022/01/31 03:19:09;;;;;;;11.30;2.67;;;5.50;99.90;;;;;;5053782;28;20039;-85
2022/01/31 03:21:36;;;;;;;10.10;2.63;;;5.40;99.90;;;;;;5035648;28;20059;-85
2022/01/31 03:24:02;;;;;;;13.13;2.93;;;5.40;99.90;;;;;;5035734;28;20044;-84
2022/01/31 03:26:28;;;;;;;10.00;2.60;;;5.40;99.90;;;;;;5019069;28;20033;-84
2022/01/31 03:28:54;;;;;;;12.40;3.00;;;5.40;99.90;;;;;;5035743;28;20035;-84
2022/01/31 03:31:21;;;;;;;8.83;2.50;;;5.40;99.90;;;;;;5035674;28;20112;-84
2022/01/31 03:33:48;;;;;;;6.83;2.43;;;5.40;99.90;;;;;;5035305;28;20484;-84
2022/01/31 03:36:14;;;;;;;9.07;2.67;;;5.40;99.90;;;;;;5053312;28;20083;-84
2022/01/31 03:38:41;;;;;;;9.10;2.70;;;5.30;99.90;;;;;;5035383;28;20619;-84
2022/01/31 03:41:12;;;;;;;12.73;2.70;;;5.40;99.90;;;;;;5035561;28;20107;-84
2022/01/31 03:43:39;;;;;;;9.20;2.70;;;5.40;99.90;;;;;;5035239;28;20451;-84
2022/01/31 03:46:05;;;;;;;11.93;3.13;;;5.40;99.90;;;;;;5035371;28;20091;-85
2022/01/31 03:48:31;;;;;;;11.13;3.10;;;5.50;99.90;;;;;;5035278;28;20068;-85
2022/01/31 03:51:03;;;;;;;9.93;3.27;;;5.50;99.90;;;;;;5035570;28;20070;-84
2022/01/31 03:53:32;;;;;;;13.23;3.73;;;5.50;99.90;;;;;;5019033;28;20043;-85
2022/01/31 03:55:58;;;;;;;12.60;3.60;;;5.50;99.90;;;;;;5053008;28;20056;-84
2022/01/31 03:58:25;;;;;;;8.30;2.70;;;5.50;99.90;;;;;;5035110;28;20489;-84
2022/01/31 04:01:00;;;;;;;7.07;2.77;;;5.60;99.90;;;;;;5051804;28;20025;-84
2022/01/31 04:03:25;;;;;;;10.43;3.17;;;5.60;99.90;;;;;;5052588;28;20393;-84
2022/01/31 04:05:51;;;;;;;11.07;3.87;;;5.60;99.90;;;;;;5035120;28;20037;-84
2022/01/31 04:08:17;;;;;;;9.17;3.63;;;5.60;99.90;;;;;;5052996;28;20029;-84
2022/01/31 04:10:43;;;;;;;9.60;3.33;;;5.70;99.90;;;;;;5034996;28;20039;-84
2022/01/31 04:13:08;;;;;;;11.33;3.17;;;5.60;99.90;;;;;;5052738;28;20036;-84
2022/01/31 04:15:35;;;;;;;12.57;3.37;;;5.60;99.90;;;;;;5052811;28;20095;-84
2022/01/31 04:18:01;;;;;;;10.03;3.50;;;5.60;99.90;;;;;;5052688;28;20048;-84
2022/01/31 04:20:27;;;;;;;10.77;3.23;;;5.70;99.90;;;;;;5052726;28;20041;-84
2022/01/31 04:22:58;;;;;;;8.40;2.70;;;5.70;99.90;;;;;;5052714;28;20041;-84
2022/01/31 04:28:17;;;;;;;11.40;3.07;;;5.70;99.90;;;;;;5052296;28;20501;-84
2022/01/31 04:30:51;;;;;;;8.30;2.53;;;5.70;99.90;;;;;;5052606;28;20044;-84
2022/01/31 04:33:17;;;;;;;9.07;2.60;;;5.70;99.90;;;;;;5034423;28;20029;-84
2022/01/31 04:35:42;;;;;;;10.40;2.87;;;5.70;99.90;;;;;;5052173;28;20539;-84
2022/01/31 04:38:08;;;;;;;13.70;3.90;;;5.70;99.90;;;;;;5052233;28;20063;-84
2022/01/31 04:40:34;;;;;;;7.47;2.90;;;5.80;99.90;;;;;;5051999;28;20029;-84
2022/01/31 04:42:59;;;;;;;9.40;3.33;;;5.80;99.90;;;;;;5052167;28;20075;-84
2022/01/31 04:45:25;;;;;;;14.83;3.97;;;5.80;99.90;;;;;;5034052;28;20921;-84
2022/01/31 04:47:51;;;;;;;12.93;3.97;;;5.90;99.90;;;;;;5052129;28;20033;-84
2022/01/31 04:50:17;;;;;;;15.07;5.63;;;5.90;99.90;;;;;;5052161;28;20025;-84
2022/01/31 04:52:42;;;;;;;14.10;4.37;;;5.90;99.90;;;;;;5052162;28;20132;-83
2022/01/31 04:55:11;;;;;;;16.13;4.30;;;5.90;99.90;;;;;;5051764;28;20037;-84
2022/01/31 04:57:38;;;;;;;9.87;3.77;;;6.00;99.90;;;;;;5052317;28;20037;-84
2022/01/31 05:00:06;;;;;;;8.53;3.50;;;6.00;99.90;;;;;;5052215;28;20037;-84
2022/01/31 05:02:31;;;;;;;14.03;3.73;;;6.00;99.90;;;;;;5052024;28;20049;-84
2022/01/31 05:04:57;;;;;;;11.80;3.77;;;6.10;99.90;;;;;;5033972;28;20036;-84
2022/01/31 05:07:23;;;;;;;13.60;4.27;;;6.10;99.90;;;;;;5051569;28;20033;-84
2022/01/31 05:09:49;;;;;;;13.00;3.80;;;6.10;99.90;;;;;;5052251;28;20553;-84
2022/01/31 05:12:15;;;;;;;13.07;3.50;;;6.20;99.90;;;;;;5051609;28;20037;-84
2022/01/31 05:14:40;;;;;;;13.37;3.50;;;6.20;99.90;;;;;;5051193;28;20116;-84
2022/01/31 05:17:06;;;;;;;12.37;3.43;;;6.20;99.90;;;;;;5051501;28;20037;-84
2022/01/31 05:19:32;;;;;;;19.37;4.20;;;6.20;99.90;;;;;;5051598;28;20048;-84
2022/01/31 05:21:58;;;;;;;12.10;3.73;;;6.20;99.90;;;;;;5051425;28;20037;-84
2022/01/31 05:24:23;;;;;;;12.03;3.20;;;6.20;99.90;;;;;;5051104;28;20066;-84
2022/01/31 05:26:51;;;;;;;15.77;3.80;;;6.20;99.90;;;;;;5051404;28;20150;-84
2022/01/31 05:29:21;;;;;;;14.83;3.80;;;6.30;99.90;;;;;;5051522;28;20033;-85
2022/01/31 05:31:48;;;;;;;10.13;3.30;;;6.30;99.90;;;;;;5051422;28;20474;-84
2022/01/31 05:34:15;;;;;;;14.10;2.80;;;6.30;99.90;;;;;;5051172;28;20033;-85
2022/01/31 05:36:41;;;;;;;11.70;3.10;;;6.20;99.90;;;;;;5051080;28;20033;-85
2022/01/31 05:39:07;;;;;;;10.60;3.03;;;6.30;99.90;;;;;;5051048;28;20037;-84
2022/01/31 05:41:33;;;;;;;18.83;3.93;;;6.30;99.90;;;;;;5051426;28;20029;-84
2022/01/31 05:43:59;;;;;;;19.37;3.87;;;6.40;99.90;;;;;;5051297;28;20481;-84
2022/01/31 05:46:25;;;;;;;13.83;3.57;;;6.30;99.90;;;;;;5147361;22;20045;-71
2022/01/31 05:48:51;;;;;;;14.83;3.37;;;6.40;99.90;;;;;;5051793;28;20029;-71
2022/01/31 05:51:22;;;;;;;14.57;3.30;;;6.40;99.90;;;;;;5051489;28;20041;-71
2022/01/31 05:53:50;;;;;;;16.57;3.33;;;6.30;99.90;;;;;;5051621;28;20530;-71
2022/01/31 05:56:17;;;;;;;15.83;2.80;;;6.30;99.90;;;;;;5051501;28;20037;-71
2022/01/31 05:58:44;;;;;;;12.33;3.20;;;6.40;99.90;;;;;;5052060;28;20037;-72
2022/01/31 06:01:11;;;;;;;12.13;2.60;;;6.40;99.90;;;;;;5051706;28;20088;-71
2022/01/31 06:03:40;;;;;;;13.43;3.00;;;6.40;99.90;;;;;;5051501;28;20104;-71
2022/01/31 06:06:06;;;;;;;13.43;3.03;;;6.40;99.90;;;;;;5051241;28;20040;-71
2022/01/31 06:08:32;;;;;;;13.27;2.30;;;6.40;99.90;;;;;;5051249;28;20104;-71
2022/01/31 06:10:58;;;;;;;11.57;2.80;;;6.40;99.90;;;;;;5051431;28;20405;-71
2022/01/31 06:13:27;;;;;;;16.43;2.83;;;6.50;99.90;;;;;;5033337;28;20385;-72
2022/01/31 06:15:54;;;;;;;16.67;2.53;;;6.50;99.90;;;;;;5051609;28;20033;-71
2022/01/31 06:18:20;;;;;;;10.50;2.20;;;6.50;99.90;;;;;;5051154;28;20501;-71
2022/01/31 06:20:46;;;;;;;11.03;2.80;;;6.50;99.90;;;;;;5051191;28;20053;-71
2022/01/31 06:23:13;;;;;;;16.77;2.90;;;6.50;99.90;;;;;;5052703;28;20483;-71
2022/01/31 06:25:39;;;;;;;14.40;2.80;;;6.50;99.90;;;;;;5054982;28;20063;-72
2022/01/31 06:28:06;;;;;;;14.30;3.57;;;6.50;99.90;;;;;;5037059;28;20037;-72
2022/01/31 06:30:34;;;;;;;15.53;2.60;;;6.50;99.90;;;;;;5037265;28;20540;-71
2022/01/31 06:33:00;;;;;;;14.33;2.70;;;6.50;99.90;;;;;;5054866;28;20603;-71
2022/01/31 06:35:26;;;;;;;17.47;2.57;;;6.50;99.90;;;;;;5054891;28;20481;-71
2022/01/31 06:37:52;;;;;;;13.13;2.67;;;6.60;99.90;;;;;;5054561;28;20033;-71
2022/01/31 06:40:19;;;;;;;9.43;2.23;;;6.50;99.90;;;;;;5054857;28;20037;-71
2022/01/31 06:42:45;;;;;;;11.93;2.17;;;6.50;99.90;;;;;;5036877;28;20111;-72
2022/01/31 06:45:11;;;;;;;16.50;2.20;;;6.50;99.90;;;;;;5054813;28;20112;-71
2022/01/31 06:47:37;;;;;;;13.40;2.13;;;6.40;99.90;;;;;;5054575;28;20569;-71
2022/01/31 06:50:06;;;;;;;9.03;1.93;;;6.30;99.90;;;;;;5054856;28;20119;-71
2022/01/31 06:52:37;;;;;;;15.90;2.38;;;6.20;99.90;;;;;;5054537;28;20079;-71
2022/01/31 06:55:06;;;;;;;13.93;2.13;;;5.90;99.90;;;;;;5054432;28;20039;-71
2022/01/31 06:57:33;;;;;;;10.57;1.60;;;5.70;99.90;;;;;;5036717;28;20111;-70
2022/01/31 07:00:01;;;;;;;4.53;1.00;;;5.40;99.90;;;;;;5054603;28;20417;-70
2022/01/31 07:02:28;;;;;;;9.60;1.27;;;5.30;99.90;;;;;;5054340;28;20029;-71
2022/01/31 07:04:54;;;;;;;6.60;1.87;;;5.20;99.90;;;;;;5053946;28;20037;-71
2022/01/31 07:07:19;;;;;;;11.63;1.67;;;5.10;99.90;;;;;;5053996;28;20090;-71
2022/01/31 07:09:45;;;;;;;9.37;1.30;;;5.00;99.90;;;;;;5054393;28;20451;-71
2022/01/31 07:12:12;;;;;;;12.27;3.90;;;5.00;99.90;;;;;;5054252;28;20382;-71
2022/01/31 07:14:38;;;;;;;8.23;1.90;;;5.00;99.90;;;;;;5054078;28;20036;-71
2022/01/31 07:17:06;;;;;;;8.00;2.37;;;5.00;99.90;;;;;;5054146;28;20032;-71
2022/01/31 07:19:35;;;;;;;6.93;1.73;;;5.00;99.90;;;;;;5036143;28;20036;-71
2022/01/31 07:22:04;;;;;;;6.30;1.65;;;5.00;99.90;;;;;;5054011;28;20056;-71
2022/01/31 07:27:04;;;;;;;9.40;1.53;;;5.00;99.90;;;;;;5053872;28;20026;-73
2022/01/31 07:29:30;;;;;;;7.87;1.47;;;5.10;99.90;;;;;;5053986;28;20104;-71
2022/01/31 07:32:00;;;;;;;8.03;1.40;;;5.10;99.90;;;;;;5054111;28;20484;-71
2022/01/31 07:34:26;;;;;;;12.33;1.50;;;5.10;99.90;;;;;;5035855;28;20389;-71
2022/01/31 07:36:53;;;;;;;10.10;1.80;;;5.10;99.90;;;;;;5053651;28;20037;-71
2022/01/31 07:39:19;;;;;;;7.57;1.77;;;5.10;99.90;;;;;;5053347;28;20039;-72
2022/01/31 07:41:47;;;;;;;6.13;1.83;;;5.10;99.90;;;;;;5053549;28;20067;-72
2022/01/31 07:44:14;;;;;;;7.47;2.10;;;5.10;99.90;;;;;;5053273;28;20043;-71
2022/01/31 07:46:40;;;;;;;9.10;2.70;;;5.10;99.90;;;;;;5053227;28;20025;-71
2022/01/31 07:49:07;;;;;;;10.43;2.37;;;5.10;99.90;;;;;;5053317;28;20029;-71
2022/01/31 07:51:36;;;;;;;14.10;3.27;;;5.20;99.90;;;;;;5053551;28;20562;-72
2022/01/31 07:54:02;;;;;;;11.30;2.40;;;5.20;99.90;;;;;;5053171;28;20036;-71
2022/01/31 07:56:28;;;;;;;12.63;2.57;;;5.20;99.90;;;;;;5053784;28;20025;-72
2022/01/31 07:58:53;;;;;;;11.90;3.33;;;5.20;99.90;;;;;;5035607;28;20568;-72
2022/01/31 08:01:20;;;;;;;10.57;2.30;;;5.20;99.90;;;;;;5053322;28;20497;-71
2022/01/31 08:03:47;;;;;;;14.63;2.70;;;5.20;99.90;;;;;;5052890;28;20435;-72
2022/01/31 08:06:14;;;;;;;14.33;2.67;;;5.20;99.90;;;;;;5053005;28;20041;-71
2022/01/31 08:08:41;;;;;;;13.77;2.70;;;5.20;99.90;;;;;;5053204;28;20025;-72
2022/01/31 08:11:08;;;;;;;9.27;2.43;;;5.20;99.90;;;;;;5053284;28;20104;-71
2022/01/31 08:13:34;;;;;;;11.37;2.27;;;5.20;99.90;;;;;;5053434;28;20101;-71
2022/01/31 08:16:09;;;;;;;9.33;2.17;;;5.20;99.90;;;;;;5053004;28;20048;-72
2022/01/31 08:18:46;;;;;;;12.87;2.53;;;5.20;99.90;;;;;;5035374;28;20025;-71
2022/01/31 08:21:13;;;;;;;12.20;2.60;;;5.20;99.90;;;;;;5053103;28;20032;-71
2022/01/31 08:23:40;;;;;;;10.77;2.03;;;5.20;99.90;;;;;;5052879;28;20025;-71
2022/01/31 08:26:11;;;;;;;11.53;2.17;;;5.20;99.90;;;;;;5052617;28;20044;-71
2022/01/31 08:28:41;;;;;;;11.50;1.53;;;5.20;99.90;;;;;;5052742;28;20028;-71
2022/01/31 08:31:14;;;;;;;8.87;1.87;;;5.20;99.90;;;;;;5052835;28;20025;-71
2022/01/31 08:35:47;;;;;;;8.67;2.00;;;5.20;99.90;;;;;;5052480;28;20087;-71
2022/01/31 08:36:34;;;;;;;12.32;2.72;;;5.20;99.90;;;;;;5047194;28;20045;-71
2022/01/31 08:39:11;;;;;;;13.07;2.50;;;5.20;99.90;;;;;;5052697;28;20043;-71
2022/01/31 08:41:42;;;;;;;9.87;1.90;;;5.20;99.90;;;;;;5052908;28;20086;-71
2022/01/31 08:44:10;;;;;;;11.57;2.10;;;5.10;99.90;;;;;;5052593;28;20036;-70
2022/01/31 08:46:40;;;;;;;16.63;2.87;;;5.20;99.90;;;;;;5051940;28;20056;-71
2022/01/31 08:49:10;;;;;;;12.17;2.93;;;5.20;99.90;;;;;;5052517;28;20024;-71
2022/01/31 08:51:37;;;;;;;16.53;3.70;;;5.20;99.90;;;;;;5034855;28;20029;-71
2022/01/31 08:54:05;;;;;;;14.10;2.07;;;5.20;99.90;;;;;;5052163;28;20043;-71
2022/01/31 08:56:40;;;;;;;12.55;2.47;;;5.20;99.90;;;;;;5052238;28;20501;-71
2022/01/31 08:59:12;;;;;;;9.17;2.23;;;5.20;99.90;;;;;;5052077;28;20074;-71
2022/01/31 09:01:38;;;;;;;12.73;2.20;;;5.20;99.90;;;;;;5034370;28;20063;-71
2022/01/31 09:04:07;;;;;;;10.43;2.03;;;5.20;99.90;;;;;;5051797;28;20512;-71
2022/01/31 09:06:34;;;;;;;9.38;1.80;;;5.20;99.90;;;;;;5051957;28;20032;-71
2022/01/31 09:09:05;;;;;;;13.77;2.73;;;5.20;99.90;;;;;;5051846;28;20045;-71
2022/01/31 09:11:32;;;;;;;11.10;1.90;;;5.20;99.90;;;;;;5052265;28;20465;-71
2022/01/31 09:13:59;;;;;;;11.40;2.90;;;5.20;99.90;;;;;;5051705;28;20029;-71
2022/01/31 09:16:25;;;;;;;11.27;2.10;;;5.20;99.90;;;;;;5051913;28;20033;-72
2022/01/31 09:18:51;;;;;;;14.27;2.63;;;5.20;99.90;;;;;;5051793;28;20397;-71
2022/01/31 09:21:17;;;;;;;22.77;2.20;;;5.30;99.90;;;;;;5051870;28;20040;-71
2022/01/31 09:23:46;;;;;;;10.67;1.80;;;5.20;99.90;;;;;;5051846;28;20060;-71
2022/01/31 09:26:13;;;;;;;13.27;1.70;;;5.20;99.90;;;;;;5051853;28;20055;-71
2022/01/31 09:28:38;;;;;;;10.30;1.87;;;5.30;99.90;;;;;;5051728;28;20144;-71
2022/01/31 09:31:05;;;;;;;14.53;2.10;;;5.30;99.90;;;;;;5034254;28;20111;-71
2022/01/31 09:33:31;;;;;;;18.90;1.93;;;5.30;99.90;;;;;;5052117;28;20104;-71
2022/01/31 09:35:57;;;;;;;14.73;2.17;;;5.30;99.90;;;;;;5051883;28;20029;-71
2022/01/31 09:38:24;;;;;;;11.53;2.07;;;5.30;99.90;;;;;;5051494;28;20036;-71
2022/01/31 09:40:54;;;;;;;14.30;2.23;;;5.30;99.90;;;;;;5051732;28;20040;-72
2022/01/31 09:48:37;;;;;;;16.03;2.50;;;5.40;99.90;;;;;;5051270;28;20587;-71
2022/01/31 09:51:10;;;;;;;9.90;2.20;;;5.40;99.90;;;;;;5051425;28;20080;-71
2022/01/31 09:53:45;;;;;;;17.87;2.57;;;5.40;99.90;;;;;;5051389;28;20103;-71
2022/01/31 09:56:14;;;;;;;13.90;2.90;;;5.40;99.90;;;;;;5033693;28;20029;-71
2022/01/31 09:58:41;;;;;;;;;;;5.40;99.90;;;;;;5054220;28;20025;-72
2022/01/31 10:01:18;;;;;;;17.10;2.50;;;5.40;99.90;;;;;;5055570;28;20305;-71
2022/01/31 10:03:50;;;;;;;13.43;2.17;;;5.40;99.90;;;;;;5055623;28;20025;-71
2022/01/31 10:06:43;;;;;;;23.07;2.47;;;5.50;99.90;;;;;;5055556;28;20037;-72
2022/01/31 10:09:15;;;;;;;16.83;2.50;;;5.50;99.90;;;;;;5053609;28;20090;-72
2022/01/31 10:11:56;;;;;;;16.23;2.70;;;5.50;99.90;;;;;;5055492;28;20043;-71
2022/01/31 10:17:42;;;;;;;14.03;2.00;;;5.50;99.90;;;;;;5055225;28;20039;-71
2022/01/31 10:20:29;;;;;;;18.17;2.73;;;5.50;99.90;;;;;;5055236;28;20120;-72
2022/01/31 10:23:16;;;;;;;16.23;2.20;;;5.50;99.90;;;;;;5055121;28;20029;-71
2022/01/31 10:25:43;;;;;;;21.33;3.00;;;5.50;99.90;;;;;;5055082;28;20048;-71
2022/01/31 10:28:14;;;;;;;18.63;2.60;;;5.60;99.90;;;;;;5055027;28;20029;-72
2022/01/31 10:30:42;;;;;;;14.33;2.30;;;5.60;99.90;;;;;;5054875;28;20025;-72
2022/01/31 10:33:09;;;;;;;11.87;2.00;;;5.50;99.90;;;;;;5055112;28;20025;-71
2022/01/31 10:35:39;;;;;;;17.13;2.67;;;5.50;99.90;;;;;;5054481;28;20429;-71
2022/01/31 10:38:18;;;;;;;14.50;2.43;;;5.50;99.90;;;;;;5036689;28;20072;-71
2022/01/31 10:46:31;;;;;;;20.43;2.37;;;5.40;99.90;;;;;;5054235;28;20113;-71
2022/01/31 10:51:58;;;;;;;18.90;2.70;;;5.40;99.90;;;;;;5054320;28;20044;-71
2022/01/31 10:57:05;;;;;;;19.20;2.83;;;5.50;99.90;;;;;;5054107;28;20033;-71
2022/01/31 10:59:36;;;;;;;16.13;2.63;;;5.40;99.90;;;;;;5054054;28;20033;-71
2022/01/31 11:02:06;;;;;;;16.07;2.23;;;5.40;99.90;;;;;;5054030;28;20029;-71
2022/01/31 11:04:34;;;;;;;21.25;3.45;;;5.50;99.90;;;;;;5053699;28;20036;-71
2022/01/31 11:07:04;;;;;;;15.53;2.77;;;5.50;99.90;;;;;;5053908;28;20391;-71
2022/01/31 11:09:31;;;;;;;;;;;5.40;99.90;;;;;;5053850;28;20271;-71
2022/01/31 11:11:57;;;;;;;15.37;2.60;;;5.40;99.90;;;;;;5036019;28;19995;-70
2022/01/31 11:14:24;;;;;;;24.33;3.27;;;5.40;99.90;;;;;;5053375;28;20029;-70
2022/01/31 11:16:50;;;;;;;21.33;3.70;;;5.40;99.90;;;;;;5053488;28;20037;-71
2022/01/31 11:19:23;;;;;;;21.67;3.17;;;5.40;99.90;;;;;;5053324;28;20071;-71
2022/01/31 11:21:52;;;;;;;24.17;3.37;;;5.40;99.90;;;;;;5053798;28;20042;-70
2022/01/31 11:24:22;;;;;;;24.50;3.05;;;5.50;99.90;;;;;;5053414;28;20116;-71
2022/01/31 11:26:58;;;;;;;20.60;3.23;;;5.40;99.90;;;;;;5053653;28;20064;-71
2022/01/31 11:29:24;;;;;;;28.50;5.23;;;5.40;99.90;;;;;;5053300;28;20040;-70
2022/01/31 11:31:50;;;;;;;23.37;3.13;;;5.40;99.90;;;;;;5053654;28;20152;-71
2022/01/31 11:34:16;;;;;;;23.27;3.90;;;5.50;99.90;;;;;;5053301;28;20096;-71
2022/01/31 11:36:43;;;;;;;26.97;3.67;;;5.50;99.90;;;;;;5053343;28;20029;-70
2022/01/31 11:39:12;;;;;;;29.90;4.57;;;5.50;99.90;;;;;;5053066;28;20132;-71
2022/01/31 11:42:02;;;;;;;32.72;4.13;;;5.50;99.90;;;;;;5053443;28;20102;-71
2022/01/31 11:45:01;;;;;;;32.17;4.87;;;5.60;99.90;;;;;;5052939;28;20037;-71
2022/01/31 11:47:31;;;;;;;28.52;4.28;;;5.60;99.90;;;;;;5065590;22;20051;-73
2022/01/31 11:50:08;;;;;;;33.77;4.20;;;5.60;99.90;;;;;;5053119;28;20032;-73
2022/01/31 11:52:46;;;;;;;29.00;3.67;;;5.60;99.90;;;;;;5053063;28;20031;-73
2022/01/31 11:55:16;;;;;;;38.80;5.57;;;5.60;99.90;;;;;;5053164;28;20063;-73
2022/01/31 11:57:45;;;;;;;;;;;5.70;99.90;;;;;;5053157;28;20123;-73
2022/01/31 12:00:13;;;;;;;28.77;3.67;;;5.70;99.90;;;;;;5052773;28;19908;-73
2022/01/31 12:02:48;;;;;;;26.87;4.57;;;5.70;99.90;;;;;;5036079;28;20099;-73
2022/01/31 12:05:25;;;;;;;29.27;3.93;;;5.80;99.90;;;;;;5052581;28;20083;-73
2022/01/31 12:08:09;;;;;;;29.37;4.40;;;5.80;99.90;;;;;;5052596;28;20040;-73
2022/01/31 12:10:43;;;;;;;24.23;4.17;;;5.80;99.90;;;;;;5052862;28;20347;-73
2022/01/31 12:13:34;;;;;;;28.40;3.53;;;5.90;99.90;;;;;;5052574;28;20033;-73
2022/01/31 12:16:23;;;;;;;24.67;3.67;;;5.90;99.90;;;;;;5034717;28;20424;-72
2022/01/31 12:24:26;;;;;;;25.90;3.60;;;5.80;99.90;;;;;;5034633;28;20035;-72
2022/01/31 12:26:58;;;;;;;26.20;4.50;;;5.80;99.90;;;;;;5052593;28;20031;-72
2022/01/31 12:29:29;;;;;;;25.87;4.37;;;5.80;99.90;;;;;;5052325;28;20413;-73
2022/01/31 12:31:58;;;;;;;21.00;3.27;;;5.80;99.90;;;;;;5034629;28;20029;-72
2022/01/31 12:34:32;;;;;;;18.02;3.03;;;5.80;99.90;;;;;;5052100;28;20031;-72
2022/01/31 12:37:01;;;;;;;18.47;3.13;;;5.70;99.90;;;;;;5034510;28;20033;-72
2022/01/31 12:39:43;;;;;;;17.23;3.25;;;5.70;99.90;;;;;;5052537;28;20492;-72
2022/01/31 12:45:38;;;;;;;15.33;2.70;;;5.70;99.90;;;;;;5028712;28;20045;-73
2022/01/31 12:48:12;;;;;;;15.97;2.70;;;5.60;99.90;;;;;;5051934;28;20029;-72
2022/01/31 12:50:56;;;;;;;21.47;5.87;;;5.60;99.90;;;;;;5051930;28;20027;-73
2022/01/31 12:53:36;;;;;;;14.70;4.47;;;5.60;99.90;;;;;;5051673;28;20041;-72
2022/01/31 12:56:21;;;;;;;13.17;2.50;;;5.70;99.90;;;;;;5051944;28;20025;-72
2022/01/31 12:58:52;;;;;;;16.13;2.73;;;5.60;99.90;;;;;;5051751;28;20048;-72
2022/01/31 13:01:22;;;;;;;19.07;3.53;;;5.70;99.90;;;;;;5051667;28;20036;-73
2022/01/31 13:03:57;;;;;;;17.50;3.13;;;5.70;99.90;;;;;;5051406;28;20033;-72
2022/01/31 13:06:43;;;;;;;19.00;2.90;;;5.70;99.90;;;;;;5051453;28;20037;-73
2022/01/31 13:09:27;;;;;;;14.83;2.80;;;5.60;99.90;;;;;;5051599;28;20104;-72
2022/01/31 13:12:05;;;;;;;16.07;3.47;;;5.70;99.90;;;;;;5051881;28;20240;-72
2022/01/31 13:14:45;;;;;;;15.90;2.93;;;5.70;99.90;;;;;;5033640;28;20064;-72
2022/01/31 13:17:18;;;;;;;90.07;29.27;;;5.70;99.90;;;;;;5051739;28;20029;-71
2022/01/31 13:19:47;;;;;;;20.27;3.17;;;5.70;99.90;;;;;;5051743;28;20025;-73
2022/01/31 13:22:18;;;;;;;15.47;2.77;;;5.70;99.90;;;;;;5051580;28;20040;-73
2022/01/31 13:24:50;;;;;;;21.27;3.00;;;5.70;99.90;;;;;;5033651;28;20029;-72
2022/01/31 13:27:19;;;;;;;21.67;3.23;;;5.70;99.90;;;;;;5051415;28;20370;-72
2022/01/31 13:29:47;;;;;;;17.83;3.72;;;5.70;99.90;;;;;;5051534;28;20505;-72
2022/01/31 13:32:19;;;;;;;14.33;2.77;;;5.80;99.90;;;;;;5051518;28;20576;-72
2022/01/31 13:35:07;;;;;;;19.03;3.10;;;5.80;99.90;;;;;;5033923;28;20366;-72
2022/01/31 13:37:50;;;;;;;17.73;3.40;;;5.80;99.90;;;;;;5051462;28;20408;-72
2022/01/31 13:40:39;;;;;;;19.27;3.17;;;5.80;99.90;;;;;;5051590;28;20104;-72